Time;durP1;ratioP1;P1;durP2;ratioP2;P2;SDS_P1;SDS_P2;PMS_P1;PMS_P2;Temp;Humidity;BMP_temperature;BMP_pressure;BME280_temperature;BME280_humidity;BME280_pressure;Samples;Min_cycle;Max_cycle;Signal;HPM_P1;HPM_P2
2022/04/13 00:00:14;;;;;;;4.27;3.90;;;11.90;99.90;;;;;;4953335;29;20177;-72
2022/04/13 00:02:40;;;;;;;4.43;3.80;;;11.90;99.90;;;;;;4953849;29;20448;-74
2022/04/13 00:05:07;;;;;;;3.60;3.30;;;11.90;99.90;;;;;;4953984;28;20456;-73
2022/04/13 00:07:33;;;;;;;3.27;3.07;;;11.90;99.90;;;;;;4954177;29;20658;-73
2022/04/13 00:09:58;;;;;;;3.50;3.07;;;11.80;99.90;;;;;;4953977;29;20511;-73
2022/04/13 00:12:24;;;;;;;3.70;3.40;;;11.80;99.90;;;;;;4953596;29;20377;-73
2022/04/13 00:14:50;;;;;;;5.77;3.60;;;11.80;99.90;;;;;;4953969;29;20180;-73
2022/04/13 00:17:16;;;;;;;4.27;3.87;;;11.70;99.90;;;;;;4953783;29;20200;-73
2022/04/13 00:19:41;;;;;;;4.37;3.67;;;11.80;99.90;;;;;;4953795;29;20650;-74
2022/04/13 00:22:07;;;;;;;8.90;3.40;;;11.70;99.90;;;;;;4953628;29;20444;-73
2022/04/13 00:24:32;;;;;;;7.43;4.33;;;11.70;99.90;;;;;;4953847;29;20177;-73
2022/04/13 00:26:58;;;;;;;5.77;3.97;;;11.70;99.90;;;;;;4953809;28;20212;-72
2022/04/13 00:29:24;;;;;;;9.27;4.23;;;11.70;99.90;;;;;;4953682;28;20229;-73
2022/04/13 00:31:52;;;;;;;8.13;3.80;;;11.60;99.90;;;;;;4952757;28;20212;-73
2022/04/13 00:34:18;;;;;;;4.67;3.70;;;11.60;99.90;;;;;;4953600;28;20415;-74
2022/04/13 00:36:44;;;;;;;5.40;4.10;;;11.60;99.90;;;;;;4953824;29;20727;-73
2022/04/13 00:39:09;;;;;;;9.17;3.80;;;11.60;99.90;;;;;;4953504;29;20654;-73
2022/04/13 00:41:35;;;;;;;8.20;4.33;;;11.50;99.90;;;;;;4953534;29;20291;-73
2022/04/13 00:44:06;;;;;;;4.93;3.40;;;11.50;99.90;;;;;;4953606;29;20943;-73
2022/04/13 00:46:32;;;;;;;4.43;3.40;;;11.50;99.90;;;;;;4952339;28;20721;-73
2022/04/13 00:48:59;;;;;;;4.83;3.57;;;11.50;99.90;;;;;;4953483;29;20506;-73
2022/04/13 00:51:25;;;;;;;6.10;3.67;;;11.50;99.90;;;;;;4953064;29;20212;-73
2022/04/13 00:53:51;;;;;;;4.33;3.23;;;11.50;99.90;;;;;;4953517;28;20451;-73
2022/04/13 00:56:23;;;;;;;4.00;3.70;;;11.50;99.90;;;;;;4953423;28;20420;-73
2022/04/13 00:58:52;;;;;;;6.87;3.30;;;11.50;99.90;;;;;;4956438;29;20435;-73
2022/04/13 02:31:55;;;;;;;2.63;2.47;;;9.80;99.90;;;;;;5573476;23;20490;-75
2022/04/13 02:34:20;;;;;;;6.90;2.70;;;9.70;99.90;;;;;;4993822;28;20427;-74
2022/04/13 02:36:46;;;;;;;4.40;2.70;;;9.70;99.90;;;;;;4994005;28;20611;-74
2022/04/13 02:39:11;;;;;;;3.20;2.87;;;9.70;99.90;;;;;;4981489;28;20273;-74
2022/04/13 02:41:37;;;;;;;7.93;3.20;;;9.60;99.90;;;;;;4983433;28;20213;-74
2022/04/13 02:44:03;;;;;;;3.53;3.23;;;9.60;99.90;;;;;;4974707;28;20175;-71
2022/04/13 02:46:28;;;;;;;3.67;2.90;;;9.50;99.90;;;;;;4975012;28;20228;-73
2022/04/13 02:48:54;;;;;;;5.67;2.50;;;9.50;99.90;;;;;;4975027;28;20222;-74
2022/04/13 02:51:19;;;;;;;3.83;2.30;;;9.40;99.90;;;;;;4974513;28;20264;-74
2022/04/13 02:53:45;;;;;;;8.50;3.13;;;9.40;99.90;;;;;;4973955;28;20172;-74
2022/04/13 02:56:10;;;;;;;3.47;2.83;;;9.40;99.90;;;;;;4974657;28;20181;-74
2022/04/13 02:58:36;;;;;;;5.93;3.00;;;9.40;99.90;;;;;;4974864;28;20282;-74
2022/04/13 03:01:03;;;;;;;3.00;2.80;;;9.30;99.90;;;;;;4974070;28;20201;-74
2022/04/13 03:03:30;;;;;;;3.07;2.23;;;9.30;99.90;;;;;;4974628;28;20670;-74
2022/04/13 03:05:55;;;;;;;7.30;2.60;;;9.30;99.90;;;;;;4974662;28;21027;-72
2022/04/13 03:08:21;;;;;;;8.47;2.97;;;9.30;99.90;;;;;;4974816;28;20428;-73
2022/04/13 03:10:46;;;;;;;4.80;2.57;;;9.20;99.90;;;;;;4974316;28;20273;-73
2022/04/13 03:13:12;;;;;;;11.30;3.23;;;9.20;99.90;;;;;;4974540;28;20506;-73
2022/04/13 03:15:38;;;;;;;2.93;2.63;;;9.20;99.90;;;;;;4974551;28;20182;-74
2022/04/13 03:18:05;;;;;;;2.60;2.40;;;9.10;99.90;;;;;;4974324;28;20363;-74
2022/04/13 03:20:31;;;;;;;3.80;3.07;;;9.10;99.90;;;;;;4974195;28;20175;-72
2022/04/13 03:22:57;;;;;;;6.73;2.37;;;9.00;99.90;;;;;;4974126;28;20438;-73
2022/04/13 03:25:22;;;;;;;3.80;3.23;;;9.00;99.90;;;;;;4973993;28;20477;-73
2022/04/13 03:27:48;;;;;;;3.60;3.30;;;8.90;99.90;;;;;;4974274;28;20175;-73
2022/04/13 03:30:16;;;;;;;3.10;2.80;;;8.90;99.90;;;;;;4973789;28;20258;-73
2022/04/13 03:32:42;;;;;;;4.97;3.13;;;8.90;99.90;;;;;;4973803;28;20212;-73
2022/04/13 03:35:10;;;;;;;4.17;3.07;;;8.80;99.90;;;;;;4974043;28;20894;-73
2022/04/13 03:37:36;;;;;;;4.00;2.97;;;8.80;99.90;;;;;;4973910;28;20552;-74
2022/04/13 03:40:02;;;;;;;4.27;3.10;;;8.80;99.90;;;;;;4973737;28;20829;-73
2022/04/13 03:42:33;;;;;;;4.87;2.97;;;8.70;99.90;;;;;;4973542;28;20435;-74
2022/04/13 03:45:02;;;;;;;5.30;3.37;;;8.70;99.90;;;;;;4973705;28;20783;-74
2022/04/13 03:47:27;;;;;;;5.13;3.60;;;8.70;99.90;;;;;;4973813;28;20420;-73
2022/04/13 03:49:53;;;;;;;3.57;2.63;;;8.70;99.90;;;;;;4973806;28;20455;-74
2022/04/13 03:52:18;;;;;;;3.77;2.60;;;8.70;99.90;;;;;;4973205;28;20198;-73
2022/04/13 03:54:44;;;;;;;3.20;2.90;;;8.60;99.90;;;;;;4973816;28;20179;-73
2022/04/13 03:57:09;;;;;;;4.03;3.63;;;8.60;99.90;;;;;;4973624;28;20256;-74
2022/04/13 03:59:35;;;;;;;4.63;2.90;;;8.60;99.90;;;;;;4973542;28;20186;-74
2022/04/13 04:02:00;;;;;;;3.77;3.43;;;8.50;99.90;;;;;;4972416;28;20542;-73
2022/04/13 04:04:26;;;;;;;3.10;2.80;;;8.50;99.90;;;;;;4973446;28;20194;-73
2022/04/13 04:06:52;;;;;;;5.10;3.33;;;8.40;99.90;;;;;;4972806;28;20213;-74
2022/04/13 04:09:17;;;;;;;2.60;2.40;;;8.40;99.90;;;;;;4973408;28;20728;-75
2022/04/13 04:11:43;;;;;;;4.10;3.10;;;8.40;99.90;;;;;;4973386;28;20233;-74
2022/04/13 04:14:08;;;;;;;6.83;2.93;;;8.30;99.90;;;;;;4973418;28;20179;-74
2022/04/13 04:16:33;;;;;;;3.70;3.40;;;8.30;99.90;;;;;;4973232;28;20207;-75
2022/04/13 04:18:59;;;;;;;4.93;2.70;;;8.30;99.90;;;;;;4972992;28;20471;-73
2022/04/13 04:21:24;;;;;;;6.67;2.30;;;8.30;99.90;;;;;;4972899;28;20615;-74
2022/04/13 04:23:50;;;;;;;4.03;3.10;;;8.20;99.90;;;;;;4973253;28;20207;-73
2022/04/13 04:26:15;;;;;;;8.07;3.97;;;8.20;99.90;;;;;;4972862;28;20226;-72
2022/04/13 04:28:41;;;;;;;4.40;3.13;;;8.20;99.90;;;;;;4973835;28;20661;-73
2022/04/13 04:31:07;;;;;;;4.10;3.10;;;8.30;99.90;;;;;;4975178;28;20216;-73
2022/04/13 04:33:33;;;;;;;2.93;2.40;;;8.30;99.90;;;;;;4974201;28;20420;-72
2022/04/13 04:35:58;;;;;;;3.60;3.10;;;8.30;99.90;;;;;;4973126;28;20185;-72
2022/04/13 04:38:26;;;;;;;5.33;2.70;;;8.30;99.90;;;;;;4972910;28;20187;-72
2022/04/13 04:40:52;;;;;;;4.20;2.53;;;8.20;99.90;;;;;;4972551;28;20643;-72
2022/04/13 04:43:18;;;;;;;4.63;2.53;;;8.20;99.90;;;;;;4972737;28;20485;-72
2022/04/13 04:45:43;;;;;;;14.37;2.97;;;8.20;99.90;;;;;;4972780;28;20211;-71
2022/04/13 04:48:09;;;;;;;3.33;2.63;;;8.20;99.90;;;;;;4972435;28;20311;-72
2022/04/13 04:50:35;;;;;;;3.17;2.87;;;8.20;99.90;;;;;;4972483;28;20651;-70
2022/04/13 04:53:00;;;;;;;4.93;3.07;;;8.10;99.90;;;;;;4972483;28;20178;-73
2022/04/13 04:55:26;;;;;;;4.33;3.27;;;8.20;99.90;;;;;;4972813;28;20185;-72
2022/04/13 04:57:51;;;;;;;5.00;2.97;;;8.20;99.90;;;;;;4972797;28;20326;-73
2022/04/13 05:00:19;;;;;;;2.50;2.40;;;8.20;99.90;;;;;;4972590;28;20494;-71
2022/04/13 05:02:52;;;;;;;4.37;2.73;;;8.30;99.90;;;;;;4972244;28;20210;-73
2022/04/13 05:05:19;;;;;;;5.13;2.83;;;8.30;99.90;;;;;;4972547;28;20462;-71
2022/04/13 05:07:45;;;;;;;2.77;2.57;;;8.40;99.90;;;;;;4972552;28;20418;-71
2022/04/13 05:10:11;;;;;;;5.40;3.13;;;8.40;99.90;;;;;;4972319;28;20413;-71
2022/04/13 05:12:44;;;;;;;3.30;2.63;;;8.50;99.90;;;;;;4972338;28;20439;-71
2022/04/13 05:15:10;;;;;;;3.37;3.07;;;8.60;99.90;;;;;;4972308;28;20465;-70
2022/04/13 05:17:37;;;;;;;7.50;3.03;;;8.70;99.90;;;;;;4975027;28;20411;-71
2022/04/13 05:20:07;;;;;;;4.50;3.10;;;8.80;99.90;;;;;;4975887;28;20491;-72
2022/04/13 05:22:33;;;;;;;10.00;4.03;;;8.90;99.90;;;;;;4975892;28;20429;-72
2022/04/13 05:25:09;;;;;;;3.53;2.47;;;9.10;99.90;;;;;;4966809;28;20496;-71
2022/04/13 05:27:35;;;;;;;6.23;3.23;;;9.40;99.90;;;;;;4972845;28;20716;-70
2022/04/13 05:30:03;;;;;;;6.07;3.00;;;9.60;99.90;;;;;;4965898;28;20543;-71
2022/04/13 05:32:29;;;;;;;6.03;3.50;;;9.90;99.90;;;;;;4975081;28;20218;-71
2022/04/13 05:35:02;;;;;;;5.07;3.13;;;10.30;99.90;;;;;;4974529;28;20421;-71
2022/04/13 05:37:28;;;;;;;5.33;3.23;;;10.60;99.90;;;;;;4975234;28;20653;-71
2022/04/13 05:39:54;;;;;;;5.20;3.00;;;10.90;99.90;;;;;;4974628;28;20413;-71
2022/04/13 05:42:24;;;;;;;3.43;2.80;;;11.20;99.90;;;;;;4975397;28;20419;-71
2022/04/13 05:44:50;;;;;;;7.40;3.43;;;11.50;99.90;;;;;;4975748;28;20971;-72
2022/04/13 05:47:15;;;;;;;5.10;3.53;;;11.80;99.90;;;;;;4975398;28;20834;-72
2022/04/13 05:49:41;;;;;;;5.17;2.90;;;12.10;99.90;;;;;;4975699;28;20412;-71
2022/04/13 05:52:06;;;;;;;4.77;3.50;;;12.10;99.90;;;;;;4974969;28;20205;-72
2022/04/13 05:54:32;;;;;;;6.40;3.77;;;12.40;99.90;;;;;;4975584;28;20186;-71
2022/04/13 05:56:58;;;;;;;3.03;2.83;;;12.70;99.90;;;;;;4976059;28;20270;-71
2022/04/13 05:59:24;;;;;;;9.17;3.40;;;13.00;99.90;;;;;;4977666;28;20187;-72
2022/04/13 06:01:49;;;;;;;3.97;3.53;;;13.40;99.90;;;;;;4978240;28;20738;-73
2022/04/13 06:04:16;;;;;;;10.10;3.27;;;13.90;99.90;;;;;;4978693;28;20715;-74
2022/04/13 06:06:42;;;;;;;4.23;3.80;;;14.00;99.90;;;;;;4986141;28;20584;-74
2022/04/13 06:09:07;;;;;;;3.67;3.43;;;14.30;99.90;;;;;;5000080;28;20486;-74
2022/04/13 06:11:33;;;;;;;4.97;3.53;;;14.60;99.90;;;;;;4999617;28;20199;-73
2022/04/13 06:13:59;;;;;;;6.00;4.27;;;14.70;99.90;;;;;;4997715;28;20558;-74
2022/04/13 06:16:25;;;;;;;4.23;3.83;;;14.90;99.90;;;;;;4997325;28;20171;-72
2022/04/13 06:18:51;;;;;;;5.43;3.50;;;15.10;99.90;;;;;;4996666;28;20422;-73
2022/04/13 06:21:17;;;;;;;6.50;4.40;;;15.40;99.90;;;;;;4996730;28;20203;-73
2022/04/13 06:23:42;;;;;;;5.23;3.93;;;15.90;99.90;;;;;;4996368;28;20187;-72
2022/04/13 06:26:08;;;;;;;6.67;3.90;;;16.20;99.90;;;;;;4996411;28;20454;-72
2022/04/13 06:28:34;;;;;;;4.77;3.80;;;16.70;99.90;;;;;;4995350;28;20603;-73
2022/04/13 06:31:00;;;;;;;5.10;3.70;;;17.10;99.90;;;;;;4994167;28;20206;-72
2022/04/13 06:33:25;;;;;;;5.30;4.40;;;17.40;99.90;;;;;;4994444;28;20270;-72
2022/04/13 06:35:51;;;;;;;7.07;4.03;;;17.70;99.90;;;;;;4995136;28;20175;-73
2022/04/13 06:38:17;;;;;;;6.03;4.60;;;17.90;99.90;;;;;;4995135;28;20190;-74
2022/04/13 06:40:42;;;;;;;9.90;4.70;;;17.90;99.90;;;;;;4994737;28;20183;-72
2022/04/13 06:43:08;;;;;;;6.90;5.40;;;18.00;99.90;;;;;;4994735;28;20473;-73
2022/04/13 06:45:36;;;;;;;7.43;5.18;;;17.80;99.90;;;;;;4995167;28;20425;-73
2022/04/13 06:48:02;;;;;;;7.93;4.82;;;17.80;99.90;;;;;;4994520;28;20788;-73
2022/04/13 06:50:28;;;;;;;6.97;5.53;;;17.80;99.90;;;;;;4974807;28;20183;-71
2022/04/13 06:52:54;;;;;;;11.70;5.63;;;17.80;99.90;;;;;;4991920;28;20492;-74
2022/04/13 06:55:19;;;;;;;7.23;5.17;;;17.90;99.90;;;;;;4990870;28;20270;-73
2022/04/13 06:57:45;;;;;;;10.70;6.17;;;18.00;99.90;;;;;;4992721;28;20180;-74
2022/04/13 07:00:12;;;;;;;10.60;6.20;;;18.30;99.90;;;;;;4992835;28;20234;-74
2022/04/13 07:02:39;;;;;;;10.37;6.50;;;18.40;99.90;;;;;;4977008;28;20272;-74
2022/04/13 07:05:05;;;;;;;11.13;6.23;;;18.60;99.90;;;;;;4973936;28;20898;-74
2022/04/13 07:07:31;;;;;;;9.07;6.30;;;18.70;99.90;;;;;;4974141;28;20427;-73
2022/04/13 07:09:57;;;;;;;17.40;6.63;;;18.80;99.90;;;;;;4974384;28;20420;-73
2022/04/13 07:12:23;;;;;;;14.43;7.57;;;18.90;99.90;;;;;;4973895;28;20443;-73
2022/04/13 07:14:48;;;;;;;15.10;9.27;;;18.90;99.90;;;;;;4974276;28;20502;-73
2022/04/13 07:17:14;;;;;;;14.17;8.97;;;19.00;99.90;;;;;;4974050;28;20183;-74
2022/04/13 07:19:39;;;;;;;13.00;7.73;;;19.20;99.90;;;;;;4974091;28;20183;-73
2022/04/13 07:22:05;;;;;;;8.00;7.00;;;19.30;99.90;;;;;;4974070;28;20196;-73
2022/04/13 07:24:31;;;;;;;15.00;7.10;;;19.40;99.90;;;;;;4973959;28;20183;-73
2022/04/13 07:26:56;;;;;;;9.83;6.30;;;19.50;99.90;;;;;;4974261;28;20576;-73
2022/04/13 07:29:22;;;;;;;8.77;6.50;;;19.80;99.90;;;;;;4973916;28;20168;-73
2022/04/13 07:31:47;;;;;;;8.30;6.67;;;20.00;99.90;;;;;;4973553;28;20220;-73
2022/04/13 07:34:13;;;;;;;9.57;6.07;;;20.10;99.90;;;;;;4973589;28;20183;-73
2022/04/13 07:36:38;;;;;;;10.57;6.33;;;20.20;99.90;;;;;;4974153;28;20264;-73
2022/04/13 07:39:04;;;;;;;11.73;6.57;;;20.20;99.90;;;;;;4973440;28;20184;-73
2022/04/13 07:41:30;;;;;;;7.10;6.07;;;20.30;99.90;;;;;;4973469;28;20199;-74
2022/04/13 07:43:57;;;;;;;16.87;6.07;;;20.50;99.90;;;;;;4974174;28;20179;-73
2022/04/13 07:46:25;;;;;;;12.30;5.57;;;20.60;99.90;;;;;;4973807;28;20199;-73
2022/04/13 07:48:51;;;;;;;15.93;5.90;;;21.00;99.90;;;;;;4973602;28;20411;-73
2022/04/13 07:51:17;;;;;;;8.03;6.33;;;21.10;99.90;;;;;;4973267;28;20868;-73
2022/04/13 07:53:42;;;;;;;7.50;5.50;;;21.40;99.90;;;;;;4973698;28;20255;-74
2022/04/13 07:56:08;;;;;;;11.73;5.80;;;21.50;99.90;;;;;;4973379;28;20250;-73
2022/04/13 07:58:34;;;;;;;9.10;4.90;;;21.50;99.90;;;;;;4973839;28;20223;-73
2022/04/13 08:00:59;;;;;;;5.80;5.23;;;21.60;99.90;;;;;;4973452;28;20439;-74
2022/04/13 08:03:25;;;;;;;8.20;5.10;;;21.50;99.90;;;;;;4973514;28;20180;-73
2022/04/13 08:05:51;;;;;;;12.00;5.30;;;21.60;99.90;;;;;;4973744;28;20214;-73
2022/04/13 08:08:16;;;;;;;9.57;4.40;;;21.90;99.90;;;;;;4973370;28;20184;-74
2022/04/13 08:10:42;;;;;;;7.23;4.57;;;22.00;99.90;;;;;;4973371;28;20179;-73
2022/04/13 08:13:07;;;;;;;9.97;5.40;;;22.30;99.90;;;;;;4974606;28;20183;-74
2022/04/13 08:15:33;;;;;;;11.73;5.00;;;22.50;99.90;;;;;;4976073;28;20274;-72
2022/04/13 08:17:58;;;;;;;8.90;5.17;;;22.50;99.90;;;;;;4975881;28;20219;-74
2022/04/13 08:20:24;;;;;;;9.20;4.67;;;22.70;99.90;;;;;;4975169;28;20788;-74
2022/04/13 08:22:49;;;;;;;7.30;5.07;;;23.00;99.90;;;;;;4974792;28;20767;-74
2022/04/13 08:25:15;;;;;;;10.83;5.20;;;23.20;99.90;;;;;;4975037;28;20540;-73
2022/04/13 08:27:41;;;;;;;18.47;10.30;;;23.00;99.90;;;;;;4974184;28;20172;-73
2022/04/13 08:30:07;;;;;;;11.83;5.60;;;22.90;99.90;;;;;;4973232;28;20180;-73
2022/04/13 08:32:32;;;;;;;11.43;5.23;;;23.10;99.90;;;;;;4972769;28;20294;-74
2022/04/13 08:34:58;;;;;;;7.10;4.27;;;23.10;99.90;;;;;;4972902;28;20506;-73
2022/04/13 08:37:29;;;;;;;7.70;4.80;;;23.30;99.90;;;;;;4972742;28;20652;-73
2022/04/13 08:39:55;;;;;;;6.60;4.20;;;23.40;99.90;;;;;;4972735;28;20191;-73
2022/04/13 08:42:43;;;;;;;9.83;4.10;;;23.70;99.90;;;;;;4972333;28;20443;-74
2022/04/13 08:45:22;;;;;;;14.53;4.70;;;23.80;99.90;;;;;;4972404;28;20198;-73
2022/04/13 08:47:49;;;;;;;9.90;4.70;;;24.10;99.90;;;;;;4972740;28;20958;-74
2022/04/13 08:50:17;;;;;;;6.70;4.90;;;23.90;99.90;;;;;;4972428;28;20494;-74
2022/04/13 08:52:49;;;;;;;5.77;3.63;;;24.20;99.90;;;;;;4977577;28;20423;-74
2022/04/13 08:55:16;;;;;;;5.50;4.80;;;24.00;99.90;;;;;;4977581;28;21042;-73
2022/04/13 08:57:47;;;;;;;6.30;4.73;;;23.90;99.90;;;;;;4979037;28;20850;-74
2022/04/13 09:00:14;;;;;;;6.97;4.00;;;24.10;99.90;;;;;;4978732;28;20427;-74
2022/04/13 09:02:55;;;;;;;10.03;4.50;;;24.10;99.90;;;;;;4979070;28;20443;-73
2022/04/13 09:05:23;;;;;;;8.30;4.37;;;23.70;99.90;;;;;;4978756;28;20841;-73
2022/04/13 09:07:53;;;;;;;7.83;4.70;;;24.30;99.90;;;;;;4979063;28;20429;-73
2022/04/13 09:10:21;;;;;;;9.93;4.70;;;24.30;99.90;;;;;;4978649;28;20431;-73
2022/04/13 09:12:50;;;;;;;8.93;4.23;;;24.30;99.90;;;;;;4979030;28;20447;-74
2022/04/13 09:15:16;;;;;;;8.50;4.43;;;24.00;99.90;;;;;;4978787;28;20418;-73
2022/04/13 09:17:42;;;;;;;5.07;3.07;;;23.70;99.90;;;;;;4978907;28;20411;-74
2022/04/13 09:20:09;;;;;;;12.00;3.60;;;24.40;99.90;;;;;;4978970;28;20455;-74
2022/04/13 09:22:36;;;;;;;11.63;3.23;;;25.20;99.90;;;;;;4978629;28;20438;-74
2022/04/13 09:25:04;;;;;;;7.53;2.57;;;25.60;99.90;;;;;;4978865;28;20415;-73
2022/04/13 09:27:30;;;;;;;5.47;2.00;;;25.90;99.10;;;;;;4978916;28;20750;-74
2022/04/13 09:29:56;;;;;;;6.33;1.63;;;26.20;97.60;;;;;;4978638;28;20422;-74
2022/04/13 09:32:22;;;;;;;6.93;1.97;;;26.30;94.50;;;;;;4978297;28;20446;-74
2022/04/13 09:34:48;;;;;;;4.40;1.83;;;26.00;94.00;;;;;;4978764;28;20176;-74
2022/04/13 09:37:14;;;;;;;9.03;2.03;;;26.00;94.00;;;;;;4978600;28;20222;-74
2022/04/13 09:39:41;;;;;;;3.90;1.53;;;26.40;94.30;;;;;;4978715;28;20566;-74
2022/04/13 09:42:07;;;;;;;8.63;1.93;;;26.60;93.20;;;;;;4978357;28;20812;-74
2022/04/13 09:44:33;;;;;;;2.13;1.47;;;26.80;93.70;;;;;;4978745;28;20415;-74
2022/04/13 09:47:09;;;;;;;2.93;1.70;;;26.90;93.80;;;;;;4978574;28;20256;-74
2022/04/13 09:49:34;;;;;;;2.03;1.13;;;26.70;92.40;;;;;;4978613;28;20298;-75
2022/04/13 09:52:00;;;;;;;7.37;1.67;;;26.70;92.30;;;;;;4978329;28;20513;-74
2022/04/13 09:54:27;;;;;;;5.90;1.70;;;27.10;92.30;;;;;;4978504;28;20453;-74
2022/04/13 09:56:53;;;;;;;3.23;1.33;;;27.00;92.30;;;;;;4978617;28;20214;-75
2022/04/13 09:59:29;;;;;;;2.70;1.10;;;27.10;91.00;;;;;;4978488;28;20768;-74
2022/04/13 10:01:55;;;;;;;4.77;1.57;;;27.00;91.40;;;;;;4978445;28;20626;-76
2022/04/13 10:04:28;;;;;;;2.80;1.83;;;26.90;92.40;;;;;;4974542;28;20416;-76
2022/04/13 10:06:55;;;;;;;6.40;1.10;;;27.30;89.60;;;;;;4975449;28;20471;-75
2022/04/13 10:09:22;;;;;;;2.73;1.60;;;27.40;89.90;;;;;;4975217;28;20904;-75
2022/04/13 10:12:03;;;;;;;2.30;1.70;;;27.50;88.30;;;;;;4975483;28;20526;-75
2022/04/13 10:14:29;;;;;;;2.50;1.60;;;27.40;90.60;;;;;;4974013;28;20422;-75
2022/04/13 10:17:04;;;;;;;6.83;1.70;;;27.50;89.00;;;;;;4973953;28;20422;-76
2022/04/13 10:19:30;;;;;;;2.90;1.37;;;27.50;90.80;;;;;;4975206;28;20514;-74
2022/04/13 10:21:59;;;;;;;12.47;2.40;;;27.30;89.50;;;;;;4975327;28;20530;-74
2022/04/13 10:24:26;;;;;;;9.03;2.00;;;27.00;87.50;;;;;;4976078;28;20199;-73
2022/04/13 10:27:11;;;;;;;3.47;2.20;;;27.30;89.10;;;;;;4975047;28;20468;-75
2022/04/13 10:29:41;;;;;;;6.13;1.87;;;27.70;88.80;;;;;;4975109;28;20430;-74
2022/04/13 10:32:16;;;;;;;4.47;1.93;;;27.60;83.40;;;;;;4973262;28;20882;-73
2022/04/13 10:34:54;;;;;;;8.53;1.87;;;27.90;85.90;;;;;;4974988;28;20423;-74
2022/04/13 10:37:21;;;;;;;4.03;1.67;;;27.80;88.80;;;;;;4974950;28;20452;-74
2022/04/13 10:39:48;;;;;;;4.83;2.03;;;27.90;84.20;;;;;;4974770;28;20910;-74
2022/04/13 10:42:16;;;;;;;3.40;1.57;;;27.80;82.20;;;;;;4974463;28;20530;-73
2022/04/13 10:45:04;;;;;;;9.40;1.90;;;28.30;85.30;;;;;;4974661;28;20451;-74
2022/04/13 10:47:47;;;;;;;1.97;1.50;;;28.10;82.90;;;;;;4974657;28;20462;-75
2022/04/13 10:50:14;;;;;;;3.50;1.43;;;28.00;83.00;;;;;;4974529;28;20847;-74
2022/04/13 10:52:51;;;;;;;4.40;1.87;;;28.10;83.80;;;;;;4974472;28;20444;-74
2022/04/13 10:55:20;;;;;;;3.40;2.17;;;28.50;84.00;;;;;;4974600;28;20550;-75
2022/04/13 10:58:00;;;;;;;4.90;2.03;;;28.10;83.00;;;;;;4974658;28;20773;-75
2022/04/13 11:00:27;;;;;;;3.90;2.07;;;28.30;82.40;;;;;;4973219;28;20421;-74
2022/04/13 11:03:03;;;;;;;4.03;1.80;;;28.50;84.30;;;;;;4974398;28;20428;-74
2022/04/13 11:05:30;;;;;;;2.03;1.70;;;28.70;85.60;;;;;;4973129;28;20463;-75
2022/04/13 11:08:26;;;;;;;2.80;2.30;;;28.70;81.10;;;;;;4974450;28;20424;-75
2022/04/13 11:10:52;;;;;;;7.00;1.60;;;28.50;79.80;;;;;;4974412;28;20813;-74
2022/04/13 11:13:19;;;;;;;6.03;2.03;;;28.40;80.90;;;;;;4974155;28;20800;-75
2022/04/13 11:15:50;;;;;;;4.20;2.00;;;28.10;79.60;;;;;;4973890;28;20836;-75
2022/04/13 11:18:20;;;;;;;4.00;1.70;;;27.70;77.40;;;;;;4974172;28;20416;-74
2022/04/13 11:21:05;;;;;;;14.63;2.43;;;27.70;78.20;;;;;;4974038;28;20447;-74
2022/04/13 11:23:49;;;;;;;7.10;1.70;;;27.80;80.20;;;;;;4974166;28;20418;-74
2022/04/13 11:26:34;;;;;;;6.33;1.53;;;27.60;80.00;;;;;;4974114;28;20459;-75
2022/04/13 11:29:09;;;;;;;1.63;1.33;;;27.50;82.40;;;;;;4966769;28;20830;-74
2022/04/13 11:32:00;;;;;;;5.23;1.67;;;27.70;81.70;;;;;;4973400;28;20485;-75
2022/04/13 11:34:50;;;;;;;8.47;2.13;;;27.40;80.40;;;;;;4973853;28;20419;-75
2022/04/13 11:37:20;;;;;;;6.00;1.30;;;27.20;81.50;;;;;;4973994;28;20459;-74
2022/04/13 11:40:06;;;;;;;3.73;1.63;;;27.00;81.60;;;;;;4973772;28;20478;-75
2022/04/13 11:42:34;;;;;;;6.93;2.23;;;27.00;80.70;;;;;;4973649;28;20443;-75
2022/04/13 11:45:15;;;;;;;4.43;1.47;;;27.00;79.00;;;;;;4974537;28;20502;-74
2022/04/13 11:48:03;;;;;;;2.40;1.37;;;27.10;80.50;;;;;;4974945;28;20433;-75
2022/04/13 11:50:36;;;;;;;5.57;1.37;;;27.10;81.30;;;;;;4974666;28;20434;-72
2022/04/13 11:53:08;;;;;;;8.53;1.83;;;27.10;80.10;;;;;;4974423;28;20415;-74
2022/04/13 11:55:37;;;;;;;9.27;2.60;;;27.00;80.50;;;;;;4974806;28;20411;-75
2022/04/13 11:58:08;;;;;;;2.70;1.70;;;26.80;82.10;;;;;;4974253;28;20780;-75
2022/04/13 12:00:43;;;;;;;4.73;1.53;;;26.70;81.40;;;;;;4973498;28;20424;-74
2022/04/13 12:03:21;;;;;;;5.23;2.10;;;26.50;81.40;;;;;;4973347;28;20413;-74
2022/04/13 12:05:55;;;;;;;5.23;1.80;;;26.20;82.90;;;;;;4973651;28;20451;-74
2022/04/13 12:08:26;;;;;;;7.90;2.33;;;26.00;82.40;;;;;;4973286;28;20458;-74
2022/04/13 12:11:03;;;;;;;3.30;3.00;;;26.00;85.40;;;;;;4973007;28;20482;-74
2022/04/13 12:13:33;;;;;;;4.97;2.40;;;26.20;86.20;;;;;;4973360;28;20458;-74
2022/04/13 12:15:59;;;;;;;4.63;1.93;;;26.10;81.90;;;;;;4973174;28;20958;-74
2022/04/13 12:18:26;;;;;;;2.77;1.50;;;26.40;85.10;;;;;;4973236;28;20412;-74
2022/04/13 12:20:54;;;;;;;5.37;1.43;;;26.60;84.50;;;;;;4971619;28;20427;-74
2022/04/13 12:23:26;;;;;;;8.33;2.17;;;26.70;82.20;;;;;;4973069;28;20494;-74
2022/04/13 12:25:55;;;;;;;4.30;1.63;;;26.20;80.30;;;;;;4972425;28;20487;-74
2022/04/13 12:28:22;;;;;;;6.03;1.53;;;25.60;82.00;;;;;;4972845;28;20502;-74
2022/04/13 12:30:54;;;;;;;3.13;1.53;;;25.50;82.00;;;;;;4974281;28;20404;-74
2022/04/13 12:33:23;;;;;;;5.50;1.97;;;25.70;81.80;;;;;;4977116;28;20423;-74
2022/04/13 12:35:56;;;;;;;6.87;1.90;;;25.90;85.50;;;;;;4975544;28;20403;-74
2022/04/13 12:38:30;;;;;;;3.00;1.67;;;25.90;82.80;;;;;;4973304;28;20749;-74
2022/04/13 12:41:19;;;;;;;6.40;1.83;;;26.00;82.80;;;;;;4972949;28;20454;-74
2022/04/13 12:43:58;;;;;;;5.57;2.43;;;26.20;86.10;;;;;;4974226;28;20770;-74
2022/04/13 12:46:32;;;;;;;4.57;1.57;;;26.20;82.90;;;;;;4972920;28;20473;-74
2022/04/13 12:49:01;;;;;;;4.27;1.60;;;26.10;80.00;;;;;;4968048;28;20802;-73
2022/04/13 12:51:33;;;;;;;3.97;1.80;;;26.00;83.70;;;;;;4969745;28;20481;-74
2022/04/13 12:54:01;;;;;;;6.20;1.50;;;26.10;84.50;;;;;;4972519;28;20416;-74
2022/04/13 12:56:29;;;;;;;3.20;1.20;;;26.20;85.60;;;;;;4972519;28;20426;-74
2022/04/13 12:58:56;;;;;;;5.23;1.70;;;26.00;81.40;;;;;;4972695;28;20412;-74
2022/04/13 13:01:33;;;;;;;4.77;2.27;;;26.00;83.80;;;;;;4972116;28;20439;-74
2022/04/13 13:04:07;;;;;;;8.70;1.40;;;25.70;86.20;;;;;;4972618;28;20502;-74
2022/04/13 13:06:34;;;;;;;3.87;1.70;;;25.80;87.60;;;;;;4972377;28;20465;-75
2022/04/13 13:09:04;;;;;;;7.20;2.23;;;25.70;89.70;;;;;;4972410;28;20447;-74
2022/04/13 13:11:35;;;;;;;3.97;1.43;;;25.80;87.60;;;;;;4972374;28;20847;-74
2022/04/13 13:14:10;;;;;;;5.60;1.43;;;25.70;86.30;;;;;;4971239;28;20423;-74
2022/04/13 13:16:38;;;;;;;10.30;2.20;;;25.50;83.30;;;;;;4972625;28;20935;-74
2022/04/13 13:19:28;;;;;;;3.70;1.90;;;25.50;86.40;;;;;;4972263;28;20807;-74
2022/04/13 13:22:17;;;;;;;9.93;2.30;;;25.40;81.80;;;;;;4972394;28;20486;-75
2022/04/13 13:24:48;;;;;;;6.30;1.80;;;25.40;82.50;;;;;;4972229;28;20832;-75
2022/04/13 13:27:15;;;;;;;6.30;1.60;;;25.30;81.80;;;;;;4972201;28;20529;-75
2022/04/13 13:29:44;;;;;;;7.20;2.10;;;25.20;83.40;;;;;;4972384;28;20908;-75
2022/04/13 13:32:11;;;;;;;3.27;1.97;;;25.10;83.20;;;;;;4971818;28;20545;-74
2022/04/13 13:34:37;;;;;;;5.10;2.10;;;25.00;84.70;;;;;;4972266;28;20463;-74
2022/04/13 13:37:03;;;;;;;6.90;2.20;;;24.90;86.20;;;;;;4972421;28;20804;-74
2022/04/13 13:39:29;;;;;;;5.00;1.97;;;25.00;87.80;;;;;;4976269;28;20208;-74
2022/04/13 13:42:05;;;;;;;5.70;2.67;;;25.10;86.80;;;;;;4975738;28;21154;-74
2022/04/13 13:44:31;;;;;;;4.20;2.33;;;25.00;84.10;;;;;;4975821;28;20230;-74
2022/04/13 13:46:57;;;;;;;7.20;1.87;;;24.80;85.20;;;;;;4975761;28;20462;-74
2022/04/13 13:49:23;;;;;;;9.73;2.23;;;24.60;84.50;;;;;;4975953;28;20179;-74
2022/04/13 13:51:49;;;;;;;6.07;2.50;;;24.60;84.30;;;;;;4975561;28;20513;-74
2022/04/13 13:54:14;;;;;;;4.77;1.73;;;24.60;84.00;;;;;;4975785;28;20188;-74
2022/04/13 13:56:40;;;;;;;6.90;1.80;;;24.80;88.40;;;;;;4975774;28;20183;-74
2022/04/13 13:59:05;;;;;;;4.70;1.97;;;24.90;85.90;;;;;;4975580;28;20187;-74
2022/04/13 14:01:31;;;;;;;9.13;2.07;;;24.80;83.80;;;;;;4975259;28;20204;-74
2022/04/13 14:03:57;;;;;;;7.90;1.80;;;24.80;84.60;;;;;;4975734;28;20692;-74
2022/04/13 14:06:22;;;;;;;5.17;2.00;;;24.80;84.80;;;;;;4975304;28;20265;-74
2022/04/13 14:08:50;;;;;;;8.40;1.77;;;24.70;86.60;;;;;;4975803;28;20251;-74
2022/04/13 14:11:16;;;;;;;4.30;1.67;;;24.60;85.90;;;;;;4975004;28;20625;-74
2022/04/13 14:13:42;;;;;;;2.63;1.70;;;24.70;86.30;;;;;;4975663;28;20482;-74
2022/04/13 14:16:07;;;;;;;7.47;2.07;;;24.60;84.80;;;;;;4975304;28;20219;-75
2022/04/13 14:18:33;;;;;;;3.60;1.53;;;24.50;87.10;;;;;;4975443;28;20954;-74
2022/04/13 14:20:58;;;;;;;10.40;2.67;;;24.60;87.60;;;;;;4974949;28;20219;-74
2022/04/13 14:23:24;;;;;;;9.40;2.43;;;24.60;87.90;;;;;;4975173;28;20199;-72